createdAt,value
2023-05-08T00:00:04.826Z,3.20
2023-05-08T00:02:32.322Z,3.40
2023-05-08T00:04:59.657Z,3.10
2023-05-08T00:07:26.844Z,3.65
2023-05-08T00:09:54.049Z,3.20
2023-05-08T00:12:21.300Z,3.47
2023-05-08T00:14:48.469Z,3.25
2023-05-08T00:17:15.769Z,3.35
2023-05-08T00:19:42.914Z,3.30
2023-05-08T00:22:10.065Z,3.20
2023-05-08T00:24:37.305Z,3.30
2023-05-08T00:27:04.614Z,3.35
2023-05-08T00:29:31.800Z,3.42
2023-05-08T00:31:58.975Z,3.42
2023-05-08T00:34:26.214Z,2.90
2023-05-08T00:36:53.432Z,3.22
2023-05-08T00:39:20.773Z,3.17
2023-05-08T00:41:47.962Z,3.38
2023-05-08T00:44:16.593Z,3.17
2023-05-08T00:46:44.051Z,3.40
2023-05-08T00:49:14.296Z,3.40
2023-05-08T00:51:44.551Z,2.83
2023-05-08T00:54:12.133Z,3.13
2023-05-08T00:56:39.723Z,3.08
2023-05-08T00:59:09.915Z,3.22
2023-05-08T01:01:39.900Z,3.35
2023-05-08T01:04:07.584Z,3.20
2023-05-08T01:06:36.777Z,3.38
2023-05-08T01:09:04.499Z,3.42
2023-05-08T01:11:50.589Z,3.53
2023-05-08T01:16:44.807Z,3.05
2023-05-08T01:19:18.624Z,3.13
2023-05-08T01:21:50.436Z,3.50
2023-05-08T01:24:32.349Z,3.33
2023-05-08T01:27:02.648Z,3.40
2023-05-08T01:29:48.193Z,3.67
2023-05-08T01:32:18.297Z,3.65
2023-05-08T01:34:48.449Z,3.13
2023-05-08T01:37:17.840Z,3.28
2023-05-08T01:39:52.092Z,3.50
2023-05-08T01:42:23.788Z,3.40
2023-05-08T01:45:02.844Z,3.22
2023-05-08T01:47:31.813Z,3.25
2023-05-08T01:50:21.749Z,3.30
2023-05-08T01:53:06.220Z,3.13
2023-05-08T01:55:36.303Z,2.95
2023-05-08T01:58:08.151Z,3.20
2023-05-08T02:00:35.956Z,3.20
2023-05-08T02:03:03.378Z,3.20
2023-05-08T02:05:30.869Z,2.80
2023-05-08T02:07:58.914Z,3.72
2023-05-08T02:10:26.602Z,3.08
2023-05-08T02:12:54.325Z,3.47
2023-05-08T02:15:21.959Z,3.22
2023-05-08T02:17:49.848Z,3.35
2023-05-08T02:20:17.127Z,3.22
2023-05-08T02:22:45.522Z,2.90
2023-05-08T02:25:14.764Z,3.08
2023-05-08T02:27:45.403Z,3.10
2023-05-08T02:30:16.106Z,3.22
2023-05-08T02:32:44.570Z,2.90
2023-05-08T02:35:16.862Z,3.78
2023-05-08T02:37:44.937Z,3.30
2023-05-08T02:40:13.115Z,3.20
2023-05-08T02:42:40.753Z,3.00
2023-05-08T02:45:08.493Z,3.15
2023-05-08T02:47:41.636Z,2.85
2023-05-08T02:50:32.292Z,3.20
2023-05-08T02:53:03.676Z,3.17
2023-05-08T02:55:41.305Z,2.80
2023-05-08T02:58:25.951Z,2.90
2023-05-08T03:01:02.094Z,3.00
2023-05-08T03:03:41.473Z,2.85
2023-05-08T03:06:10.888Z,2.95
2023-05-08T03:08:38.473Z,3.28
2023-05-08T03:11:09.326Z,3.08
2023-05-08T03:13:37.818Z,3.15
2023-05-08T03:16:06.581Z,3.10
2023-05-08T03:18:36.790Z,2.92
2023-05-08T03:21:05.172Z,3.20
2023-05-08T03:23:33.964Z,3.15
2023-05-08T03:26:01.954Z,3.30
2023-05-08T03:28:29.941Z,2.97
2023-05-08T03:30:57.794Z,2.88
2023-05-08T03:33:25.105Z,2.85
2023-05-08T03:35:53.225Z,2.90
2023-05-08T03:38:20.602Z,2.92
2023-05-08T03:40:49.264Z,3.10
2023-05-08T03:43:17.642Z,3.28
2023-05-08T03:45:44.949Z,3.22
2023-05-08T03:48:12.344Z,2.75
2023-05-08T03:50:39.559Z,3.22
2023-05-08T03:53:06.764Z,3.20
2023-05-08T03:55:33.975Z,3.00
2023-05-08T03:58:01.141Z,3.30
2023-05-08T04:00:28.293Z,3.25
2023-05-08T04:03:06.335Z,3.22
2023-05-08T04:05:37.869Z,3.15
2023-05-08T04:08:16.945Z,3.17
2023-05-08T04:10:49.152Z,3.10
2023-05-08T04:13:19.638Z,3.63
2023-05-08T04:15:52.435Z,2.70
2023-05-08T04:18:21.698Z,2.80
2023-05-08T04:20:49.359Z,3.03
2023-05-08T04:23:19.308Z,3.20
2023-05-08T04:25:47.590Z,3.15
2023-05-08T04:28:15.926Z,3.20
2023-05-08T04:30:43.317Z,3.20
2023-05-08T04:33:10.853Z,3.00
2023-05-08T04:35:38.191Z,3.17
2023-05-08T04:38:05.425Z,3.20
2023-05-08T04:40:32.680Z,3.10
2023-05-08T04:42:59.879Z,2.90
2023-05-08T04:45:27.055Z,2.75
2023-05-08T04:47:54.287Z,2.83
2023-05-08T04:50:21.512Z,3.05
2023-05-08T04:52:48.738Z,3.40
2023-05-08T04:55:15.936Z,3.50
2023-05-08T04:57:43.167Z,3.50
2023-05-08T05:00:10.676Z,3.10
2023-05-08T05:02:37.855Z,3.00
2023-05-08T05:05:05.795Z,3.40
2023-05-08T05:07:32.947Z,3.50
2023-05-08T05:10:00.630Z,3.30
2023-05-08T05:12:27.848Z,3.58
2023-05-08T05:14:54.981Z,3.22
2023-05-08T05:17:22.652Z,3.45
2023-05-08T05:19:51.503Z,3.75
2023-05-08T05:22:20.031Z,5.07
2023-05-08T05:24:47.162Z,5.45
2023-05-08T05:27:14.413Z,5.25
2023-05-08T05:29:41.593Z,6.10
2023-05-08T05:32:10.189Z,5.57
2023-05-08T05:34:37.389Z,6.70
2023-05-08T05:37:04.944Z,5.60
2023-05-08T05:39:32.091Z,6.07
2023-05-08T05:41:59.261Z,6.20
2023-05-08T05:44:26.406Z,5.78
2023-05-08T05:46:53.597Z,5.07
2023-05-08T05:49:20.840Z,5.88
2023-05-08T05:51:48.057Z,5.80
2023-05-08T05:54:15.225Z,5.70
2023-05-08T05:56:42.616Z,5.30
2023-05-08T05:59:09.779Z,4.82
2023-05-08T06:01:37.041Z,5.00
2023-05-08T06:04:04.510Z,5.38
2023-05-08T06:06:31.996Z,5.50
2023-05-08T06:08:59.673Z,6.43
2023-05-08T06:11:27.190Z,6.68
2023-05-08T06:13:54.364Z,6.70
2023-05-08T06:16:23.179Z,6.63
2023-05-08T06:18:50.512Z,6.70
2023-05-08T06:21:17.960Z,7.47
2023-05-08T06:23:45.153Z,8.00
2023-05-08T06:26:12.311Z,7.47
2023-05-08T06:28:39.501Z,8.10
2023-05-08T06:31:06.721Z,8.38
2023-05-08T06:33:33.975Z,10.00
2023-05-08T06:36:01.225Z,9.10
2023-05-08T06:38:28.400Z,10.23
2023-05-08T06:40:55.728Z,10.27
2023-05-08T06:43:23.067Z,9.57
2023-05-08T06:45:50.694Z,9.43
2023-05-08T06:48:17.928Z,10.13
2023-05-08T06:50:45.265Z,8.80
2023-05-08T06:53:12.434Z,9.10
2023-05-08T06:55:39.608Z,9.90
2023-05-08T06:58:06.828Z,10.25
2023-05-08T07:00:34.014Z,10.35
2023-05-08T07:03:01.261Z,11.02
2023-05-08T07:05:28.576Z,12.57
2023-05-08T07:07:55.788Z,12.15
2023-05-08T07:10:23.311Z,12.88
2023-05-08T07:12:50.828Z,11.95
2023-05-08T07:15:26.194Z,12.65
2023-05-08T07:17:54.472Z,14.10
2023-05-08T07:20:21.980Z,12.38
2023-05-08T07:22:49.242Z,11.70
2023-05-08T07:25:16.939Z,10.75
2023-05-08T07:27:44.214Z,10.77
2023-05-08T07:30:11.571Z,9.68
2023-05-08T07:32:39.373Z,9.82
2023-05-08T07:35:10.846Z,9.20
2023-05-08T07:37:38.619Z,8.52
2023-05-08T07:40:06.255Z,9.30
2023-05-08T07:42:38.776Z,9.05
2023-05-08T07:45:06.133Z,9.52
2023-05-08T07:47:33.411Z,8.52
2023-05-08T07:50:00.697Z,9.35
2023-05-08T07:52:27.868Z,8.75
2023-05-08T07:54:55.056Z,9.15
2023-05-08T07:57:22.216Z,10.50
2023-05-08T07:59:49.405Z,9.40
2023-05-08T08:02:16.896Z,15.05
2023-05-08T08:04:44.140Z,14.65
2023-05-08T08:07:11.330Z,13.50
2023-05-08T08:09:38.588Z,12.73
2023-05-08T08:12:05.830Z,12.43
2023-05-08T08:14:33.059Z,12.10
2023-05-08T08:17:00.244Z,12.25
2023-05-08T08:19:27.424Z,11.95
2023-05-08T08:21:54.686Z,11.75
2023-05-08T08:24:21.891Z,12.25
2023-05-08T08:26:49.243Z,11.88
2023-05-08T08:29:16.501Z,11.98
2023-05-08T08:31:43.772Z,12.55
2023-05-08T08:34:10.965Z,12.40
2023-05-08T08:36:38.203Z,11.40
2023-05-08T08:39:05.391Z,13.63
2023-05-08T08:41:33.399Z,14.73
2023-05-08T08:44:00.628Z,13.95
2023-05-08T08:46:28.794Z,11.95
2023-05-08T08:48:56.996Z,13.80
2023-05-08T08:51:33.505Z,12.85
2023-05-08T08:54:05.134Z,12.75
2023-05-08T08:56:33.438Z,12.98
2023-05-08T08:59:01.419Z,12.13
2023-05-08T09:01:29.392Z,10.88
2023-05-08T09:03:59.901Z,11.43
2023-05-08T09:06:30.093Z,12.25
2023-05-08T09:08:58.066Z,12.23
2023-05-08T09:11:25.928Z,13.55
2023-05-08T09:13:53.130Z,14.32
2023-05-08T09:16:20.342Z,14.50
2023-05-08T09:18:47.594Z,13.90
2023-05-08T09:21:15.027Z,13.30
2023-05-08T09:23:57.258Z,12.60
2023-05-08T09:26:34.398Z,11.77
2023-05-08T09:29:13.999Z,10.80
2023-05-08T09:31:42.523Z,11.55
2023-05-08T09:34:10.439Z,12.07
2023-05-08T09:36:39.972Z,10.55
2023-05-08T09:39:12.727Z,10.15
2023-05-08T09:41:41.111Z,11.52
2023-05-08T09:44:08.480Z,10.32
2023-05-08T09:46:36.097Z,10.02
2023-05-08T09:49:04.482Z,9.57
2023-05-08T09:51:32.573Z,8.93
2023-05-08T09:54:00.431Z,7.85
2023-05-08T09:56:30.682Z,8.27
2023-05-08T09:58:57.865Z,8.63
2023-05-08T10:01:44.173Z,7.15
2023-05-08T10:04:11.449Z,7.40
2023-05-08T10:06:38.821Z,6.88
2023-05-08T10:09:15.540Z,6.85
2023-05-08T10:11:43.959Z,6.68
2023-05-08T10:14:11.150Z,6.57
2023-05-08T10:16:45.576Z,6.68
2023-05-08T10:19:14.020Z,6.22
2023-05-08T10:21:42.638Z,6.13
2023-05-08T10:24:14.542Z,6.05
2023-05-08T10:26:53.706Z,6.00
2023-05-08T10:29:34.812Z,6.15
2023-05-08T10:32:03.620Z,7.07
2023-05-08T10:34:32.688Z,6.00
2023-05-08T10:37:00.004Z,5.43
2023-05-08T10:39:27.878Z,4.78
2023-05-08T10:41:55.236Z,5.30
2023-05-08T10:44:22.483Z,4.88
2023-05-08T10:46:55.671Z,4.75
2023-05-08T10:49:40.964Z,4.60
2023-05-08T10:52:08.546Z,4.80
2023-05-08T10:55:04.491Z,4.53
2023-05-08T10:57:32.175Z,4.60
2023-05-08T10:59:59.366Z,4.50
2023-05-08T11:02:30.453Z,4.60
2023-05-08T11:05:16.835Z,4.30
2023-05-08T11:07:56.775Z,4.50
2023-05-08T11:10:30.770Z,4.18
2023-05-08T11:12:58.699Z,4.10
2023-05-08T11:15:39.032Z,4.45
2023-05-08T11:18:12.389Z,4.20
2023-05-08T11:20:43.494Z,4.43
2023-05-08T11:23:23.264Z,3.83
2023-05-08T11:26:00.257Z,4.50
2023-05-08T11:28:27.638Z,4.78
2023-05-08T11:30:58.511Z,4.47
2023-05-08T11:33:30.528Z,4.20
2023-05-08T11:36:01.920Z,4.47
2023-05-08T11:38:32.165Z,4.13
2023-05-08T11:41:01.243Z,4.25
2023-05-08T11:43:37.370Z,4.00
2023-05-08T11:46:05.832Z,4.65
2023-05-08T11:48:33.607Z,4.30
2023-05-08T11:51:01.357Z,4.93
2023-05-08T11:53:30.416Z,6.35
2023-05-08T11:55:57.889Z,6.45
2023-05-08T11:58:25.156Z,6.97
2023-05-08T12:00:52.613Z,5.65
2023-05-08T12:03:21.425Z,5.70
2023-05-08T12:05:49.841Z,5.38
2023-05-08T12:08:17.867Z,4.57
2023-05-08T12:10:47.763Z,5.15
2023-05-08T12:13:21.162Z,6.18
2023-05-08T12:15:48.951Z,7.60
2023-05-08T12:18:17.057Z,10.85
2023-05-08T12:20:44.840Z,11.98
2023-05-08T12:23:12.546Z,12.55
2023-05-08T12:25:40.690Z,13.48
2023-05-08T12:28:08.141Z,13.95
2023-05-08T12:30:35.425Z,16.98
2023-05-08T12:33:04.491Z,16.65
2023-05-08T12:35:32.308Z,16.52
2023-05-08T12:38:03.463Z,17.65
2023-05-08T12:40:34.088Z,17.15
2023-05-08T12:43:01.983Z,17.38
2023-05-08T12:45:34.360Z,17.02
2023-05-08T12:48:02.703Z,16.77
2023-05-08T12:50:30.673Z,16.10
2023-05-08T12:53:27.499Z,15.90
2023-05-08T12:55:55.878Z,16.52
2023-05-08T12:58:26.945Z,16.00
2023-05-08T13:00:54.925Z,16.05
2023-05-08T13:03:29.192Z,15.60
2023-05-08T13:05:58.047Z,14.80
2023-05-08T13:08:33.027Z,15.75
2023-05-08T13:11:00.699Z,17.33
2023-05-08T13:13:29.002Z,17.95
2023-05-08T13:15:56.709Z,17.10
2023-05-08T13:18:27.815Z,17.55
2023-05-08T13:20:56.236Z,16.38
2023-05-08T13:23:23.836Z,16.88
2023-05-08T13:25:51.262Z,16.77
2023-05-08T13:28:18.506Z,16.13
2023-05-08T13:30:46.030Z,16.52
2023-05-08T13:33:13.278Z,16.60
2023-05-08T13:35:40.808Z,16.80
2023-05-08T13:38:07.980Z,16.33
2023-05-08T13:40:35.242Z,16.77
2023-05-08T13:43:02.384Z,16.02
2023-05-08T13:45:29.768Z,17.05
2023-05-08T13:47:57.217Z,17.15
2023-05-08T13:50:24.560Z,17.42
2023-05-08T13:52:54.483Z,17.02
2023-05-08T13:55:23.320Z,16.20
2023-05-08T13:57:51.139Z,16.63
2023-05-08T14:00:18.680Z,16.45
2023-05-08T14:02:46.158Z,15.80
2023-05-08T14:05:13.702Z,17.25
2023-05-08T14:07:41.186Z,16.38
2023-05-08T14:10:08.570Z,15.55
2023-05-08T14:12:37.663Z,16.50
2023-05-08T14:15:05.947Z,15.05
2023-05-08T14:17:33.418Z,16.88
2023-05-08T14:20:00.609Z,15.80
2023-05-08T14:22:27.809Z,16.17
2023-05-08T14:24:54.997Z,15.88
2023-05-08T14:27:22.250Z,15.18
2023-05-08T14:29:50.830Z,16.17
2023-05-08T14:32:18.098Z,14.93
2023-05-08T14:34:45.391Z,15.57
2023-05-08T14:37:13.144Z,14.65
2023-05-08T14:39:40.504Z,16.00
2023-05-08T14:44:37.872Z,15.65
2023-05-08T14:47:05.106Z,15.90
2023-05-08T14:49:38.242Z,15.18
2023-05-08T14:52:06.717Z,14.68
2023-05-08T14:54:34.091Z,14.05
2023-05-08T14:57:01.601Z,13.82
2023-05-08T14:59:28.790Z,14.27
2023-05-08T15:01:55.992Z,14.70
2023-05-08T15:04:23.427Z,14.77
2023-05-08T15:06:50.869Z,13.35
2023-05-08T15:09:18.046Z,14.50
2023-05-08T15:11:45.331Z,13.98
2023-05-08T15:14:12.547Z,14.90
2023-05-08T15:16:39.728Z,14.40
2023-05-08T15:19:09.283Z,13.68
2023-05-08T15:21:36.546Z,12.95
2023-05-08T15:24:03.750Z,13.77
2023-05-08T15:26:31.020Z,13.15
2023-05-08T15:28:58.227Z,13.75
2023-05-08T15:31:25.887Z,12.65
2023-05-08T15:33:53.086Z,14.73
2023-05-08T15:36:23.126Z,12.65
2023-05-08T15:38:50.722Z,12.30
2023-05-08T15:41:17.909Z,14.23
2023-05-08T15:43:45.581Z,12.07
2023-05-08T15:46:12.850Z,12.48
2023-05-08T15:48:40.122Z,12.05
2023-05-08T15:51:07.333Z,12.90
2023-05-08T15:53:35.774Z,11.88
2023-05-08T15:56:03.022Z,13.43
2023-05-08T15:58:30.228Z,13.00
2023-05-08T16:00:57.785Z,11.77
2023-05-08T16:03:25.385Z,11.98
2023-05-08T16:05:52.577Z,12.80
2023-05-08T16:08:19.806Z,12.88
2023-05-08T16:10:47.246Z,12.65
2023-05-08T16:13:14.706Z,12.38
2023-05-08T16:15:42.002Z,11.15
2023-05-08T16:18:09.190Z,12.32
2023-05-08T16:20:36.633Z,11.75
2023-05-08T16:23:03.910Z,11.73
2023-05-08T16:25:31.318Z,11.10
2023-05-08T16:27:58.750Z,13.38
2023-05-08T16:30:25.924Z,12.10
2023-05-08T16:32:53.472Z,11.80
2023-05-08T16:35:20.773Z,11.10
2023-05-08T16:37:48.481Z,11.95
2023-05-08T16:40:15.736Z,11.15
2023-05-08T16:42:42.907Z,10.80
2023-05-08T16:45:10.389Z,11.82
2023-05-08T16:47:37.580Z,10.38
2023-05-08T16:50:05.409Z,10.73
2023-05-08T16:52:33.018Z,10.32
2023-05-08T16:55:10.875Z,10.30
2023-05-08T16:57:38.283Z,10.70
2023-05-08T17:00:05.885Z,11.45
2023-05-08T17:02:33.172Z,10.50
2023-05-08T17:05:00.507Z,10.27
2023-05-08T17:07:27.716Z,11.38
2023-05-08T17:09:58.210Z,10.90
2023-05-08T17:12:25.638Z,10.60
2023-05-08T17:14:52.956Z,10.18
2023-05-08T17:17:20.121Z,9.85
2023-05-08T17:19:47.305Z,9.20
2023-05-08T17:22:14.549Z,10.52
2023-05-08T17:24:41.746Z,10.85
2023-05-08T17:27:09.058Z,10.10
2023-05-08T17:29:36.490Z,10.02
2023-05-08T17:32:03.671Z,10.15
2023-05-08T17:34:30.983Z,9.68
2023-05-08T17:36:58.428Z,10.05
2023-05-08T17:39:25.629Z,9.18
2023-05-08T17:41:54.053Z,10.63
2023-05-08T17:44:21.299Z,9.43
2023-05-08T17:46:48.587Z,10.32
2023-05-08T17:49:19.294Z,10.27
2023-05-08T17:51:46.852Z,10.65
2023-05-08T17:54:14.032Z,10.07
2023-05-08T17:56:41.213Z,11.88
2023-05-08T17:59:08.404Z,11.55
2023-05-08T18:01:35.691Z,10.77
2023-05-08T18:04:02.956Z,11.60
2023-05-08T18:06:30.233Z,11.20
2023-05-08T18:08:57.430Z,11.85
2023-05-08T18:11:25.510Z,11.05
2023-05-08T18:13:53.472Z,9.90
2023-05-08T18:16:22.962Z,10.05
2023-05-08T18:18:50.298Z,11.10
2023-05-08T18:21:17.499Z,8.85
2023-05-08T18:23:44.767Z,9.18
2023-05-08T18:26:15.684Z,9.82
2023-05-08T18:28:43.010Z,10.60
2023-05-08T18:31:10.977Z,9.75
2023-05-08T18:33:38.288Z,9.30
2023-05-08T18:36:07.010Z,8.98
2023-05-08T18:38:34.568Z,9.18
2023-05-08T18:41:02.567Z,9.52
2023-05-08T18:43:29.765Z,8.65
2023-05-08T18:45:57.685Z,9.32
2023-05-08T18:48:26.202Z,8.30
2023-05-08T18:50:55.789Z,9.00
2023-05-08T18:53:22.963Z,9.25
2023-05-08T18:55:50.958Z,9.43
2023-05-08T18:58:18.167Z,8.52
2023-05-08T19:00:45.380Z,8.35
2023-05-08T19:03:12.716Z,9.77
2023-05-08T19:05:41.374Z,9.35
2023-05-08T19:08:08.656Z,9.35
2023-05-08T19:10:35.836Z,8.80
2023-05-08T19:13:03.207Z,8.90
2023-05-08T19:15:30.659Z,9.25
2023-05-08T19:17:57.853Z,8.55
2023-05-08T19:20:25.845Z,9.05
2023-05-08T19:22:53.211Z,8.55
2023-05-08T19:25:20.452Z,9.38
2023-05-08T19:27:47.900Z,9.48
2023-05-08T19:30:15.389Z,9.75
2023-05-08T19:32:42.744Z,8.95
2023-05-08T19:35:10.030Z,9.13
2023-05-08T19:37:37.980Z,10.50
2023-05-08T19:40:06.052Z,9.35
2023-05-08T19:42:33.286Z,10.25
2023-05-08T19:45:01.310Z,11.52
2023-05-08T19:47:28.569Z,9.75
2023-05-08T19:49:55.794Z,10.65
2023-05-08T19:52:22.985Z,10.25
2023-05-08T19:54:50.159Z,9.90
2023-05-08T19:57:17.419Z,9.80
2023-05-08T19:59:44.751Z,12.07
2023-05-08T20:02:11.980Z,10.30
2023-05-08T20:05:03.809Z,10.05
2023-05-08T20:07:26.399Z,9.90
2023-05-08T20:09:53.733Z,9.65
2023-05-08T20:12:20.926Z,10.43
2023-05-08T20:14:48.160Z,10.73
2023-05-08T20:17:15.356Z,10.43
2023-05-08T20:19:42.603Z,9.68
2023-05-08T20:22:10.986Z,9.82
2023-05-08T20:24:38.191Z,8.85
2023-05-08T20:27:05.508Z,9.45
2023-05-08T20:29:32.686Z,9.80
2023-05-08T20:32:00.350Z,8.80
2023-05-08T20:34:27.617Z,9.15
2023-05-08T20:36:56.266Z,8.75
2023-05-08T20:39:23.417Z,9.88
2023-05-08T20:41:50.565Z,9.50
2023-05-08T20:44:19.258Z,9.18
2023-05-08T20:46:46.443Z,8.50
2023-05-08T20:49:13.829Z,8.60
2023-05-08T20:51:41.063Z,8.88
2023-05-08T20:54:08.219Z,8.13
2023-05-08T20:56:38.409Z,8.02
2023-05-08T20:59:05.653Z,8.50
2023-05-08T21:01:33.063Z,8.65
2023-05-08T21:04:00.240Z,9.07
2023-05-08T21:06:27.560Z,8.13
2023-05-08T21:08:54.926Z,7.57
2023-05-08T21:11:22.214Z,8.60
2023-05-08T21:13:49.376Z,7.88
2023-05-08T21:16:16.604Z,7.78
2023-05-08T21:18:43.840Z,8.27
2023-05-08T21:21:20.050Z,8.82
2023-05-08T21:23:47.244Z,8.20
2023-05-08T21:26:14.419Z,7.85
2023-05-08T21:28:41.913Z,9.02
2023-05-08T21:31:09.211Z,9.43
2023-05-08T21:33:36.497Z,7.43
2023-05-08T21:36:03.799Z,8.27
2023-05-08T21:38:31.003Z,8.02
2023-05-08T21:40:58.168Z,7.88
2023-05-08T21:43:25.405Z,7.55
2023-05-08T21:45:52.588Z,8.48
2023-05-08T21:48:19.771Z,8.68
2023-05-08T21:50:46.951Z,8.98
2023-05-08T21:53:14.114Z,8.15
2023-05-08T21:55:41.288Z,8.70
2023-05-08T21:58:08.462Z,7.93
2023-05-08T22:00:35.689Z,7.30
2023-05-08T22:03:02.942Z,8.65
2023-05-08T22:05:30.179Z,8.00
2023-05-08T22:07:57.357Z,8.82
2023-05-08T22:10:25.599Z,7.80
2023-05-08T22:12:52.891Z,7.95
2023-05-08T22:15:29.705Z,8.30
2023-05-08T22:17:57.824Z,7.72
2023-05-08T22:20:25.136Z,8.18
2023-05-08T22:22:52.281Z,8.07
2023-05-08T22:25:21.637Z,7.43
2023-05-08T22:27:48.969Z,7.78
2023-05-08T22:30:16.192Z,7.70
2023-05-08T22:32:43.410Z,7.28
2023-05-08T22:35:10.743Z,7.47
2023-05-08T22:37:37.942Z,7.45
2023-05-08T22:40:05.582Z,6.93
2023-05-08T22:42:32.733Z,7.15
2023-05-08T22:44:59.878Z,7.55
2023-05-08T22:47:27.060Z,6.90
2023-05-08T22:49:54.702Z,7.53
2023-05-08T22:52:21.863Z,6.90
2023-05-08T22:54:49.006Z,6.75
2023-05-08T22:57:16.233Z,7.53
2023-05-08T22:59:43.417Z,7.05
2023-05-08T23:02:10.568Z,7.40
2023-05-08T23:04:37.841Z,6.80
2023-05-08T23:07:05.017Z,7.45
2023-05-08T23:09:32.238Z,6.97
2023-05-08T23:11:59.429Z,7.15
2023-05-08T23:14:26.589Z,6.53
2023-05-08T23:16:53.780Z,6.95
2023-05-08T23:19:21.084Z,7.55
2023-05-08T23:21:48.308Z,6.95
2023-05-08T23:24:15.491Z,7.22
2023-05-08T23:26:42.812Z,6.90
2023-05-08T23:29:09.982Z,6.97
2023-05-08T23:31:37.211Z,7.20
2023-05-08T23:34:04.474Z,6.57
2023-05-08T23:36:32.119Z,6.97
2023-05-08T23:38:59.308Z,6.20
2023-05-08T23:41:26.587Z,6.38
2023-05-08T23:43:53.685Z,6.75
2023-05-08T23:46:20.880Z,6.68
2023-05-08T23:48:48.088Z,5.95
2023-05-08T23:51:15.244Z,6.72
2023-05-08T23:53:42.434Z,6.40
2023-05-08T23:56:09.822Z,6.15
2023-05-08T23:58:37.058Z,6.00
